createdAt,value
2018-09-16T00:01:21.836Z,14.70
2018-09-16T00:03:51.222Z,13.00
2018-09-16T00:06:20.923Z,14.70
2018-09-16T00:08:50.958Z,14.70
2018-09-16T00:11:21.290Z,14.60
2018-09-16T00:13:51.528Z,14.60
2018-09-16T00:16:21.720Z,14.60
2018-09-16T00:18:51.237Z,14.50
2018-09-16T00:21:20.460Z,14.50
2018-09-16T00:23:50.252Z,14.50
2018-09-16T00:26:21.271Z,14.50
2018-09-16T00:28:50.887Z,14.50
2018-09-16T00:31:21.585Z,14.50
2018-09-16T00:33:51.590Z,14.50
2018-09-16T00:36:20.837Z,14.40
2018-09-16T00:38:50.861Z,14.40
2018-09-16T00:41:20.695Z,14.30
2018-09-16T00:43:50.082Z,14.20
2018-09-16T00:46:19.312Z,14.20
2018-09-16T00:48:51.088Z,14.20
2018-09-16T00:51:20.618Z,14.20
2018-09-16T00:53:49.817Z,14.20
2018-09-16T00:56:19.131Z,14.00
2018-09-16T00:58:48.345Z,12.10
2018-09-16T01:01:17.508Z,14.00
2018-09-16T01:03:48.861Z,13.90
2018-09-16T01:06:24.750Z,13.90
2018-09-16T01:08:57.843Z,14.00
2018-09-16T01:11:26.944Z,14.00
2018-09-16T01:13:58.537Z,13.90
2018-09-16T01:16:27.980Z,13.90
2018-09-16T01:18:57.827Z,14.00
2018-09-16T01:21:28.454Z,13.90
2018-09-16T01:23:57.660Z,13.90
2018-09-16T01:26:26.843Z,13.80
2018-09-16T01:28:57.279Z,13.90
2018-09-16T01:31:27.536Z,13.80
2018-09-16T01:33:58.084Z,13.80
2018-09-16T01:36:27.796Z,13.80
2018-09-16T01:38:59.010Z,13.80
2018-09-16T01:41:29.293Z,13.70
2018-09-16T01:43:58.527Z,13.70
2018-09-16T01:46:27.962Z,13.70
2018-09-16T01:48:57.237Z,13.80
2018-09-16T01:51:28.311Z,13.80
2018-09-16T01:53:57.889Z,13.70
2018-09-16T01:56:27.341Z,11.90
2018-09-16T01:58:57.161Z,13.50
2018-09-16T02:01:26.420Z,13.60
2018-09-16T02:03:55.811Z,13.50
2018-09-16T02:06:25.373Z,13.50
2018-09-16T02:08:54.523Z,14.30
2018-09-16T02:11:23.823Z,13.40
2018-09-16T02:13:53.252Z,13.40
2018-09-16T02:16:23.280Z,13.40
2018-09-16T02:18:53.033Z,13.40
2018-09-16T02:21:22.219Z,13.40
2018-09-16T02:23:51.854Z,13.30
2018-09-16T02:26:21.173Z,13.30
2018-09-16T02:28:50.626Z,13.20
2018-09-16T02:31:20.468Z,13.20
2018-09-16T02:33:50.451Z,14.70
2018-09-16T02:36:19.643Z,11.60
2018-09-16T02:38:48.793Z,13.10
2018-09-16T02:41:17.995Z,13.10
2018-09-16T02:43:48.460Z,13.10
2018-09-16T02:46:17.592Z,13.10
2018-09-16T02:48:46.773Z,13.10
2018-09-16T02:51:16.074Z,13.10
2018-09-16T02:53:45.371Z,13.10
2018-09-16T02:56:14.601Z,13.00
2018-09-16T02:58:43.959Z,13.00
2018-09-16T03:01:13.228Z,13.10
2018-09-16T03:03:43.498Z,13.00
2018-09-16T03:06:14.042Z,12.90
2018-09-16T03:08:45.268Z,13.00
2018-09-16T03:11:14.392Z,12.90
2018-09-16T03:13:43.935Z,12.80
2018-09-16T03:16:13.123Z,12.80
2018-09-16T03:18:42.582Z,12.80
2018-09-16T03:21:11.844Z,12.70
2018-09-16T03:23:41.428Z,12.70
2018-09-16T03:26:10.675Z,12.80
2018-09-16T03:28:39.960Z,12.90
2018-09-16T03:31:09.844Z,12.90
2018-09-16T03:33:39.393Z,12.70
2018-09-16T03:36:11.214Z,12.70
2018-09-16T03:38:41.012Z,12.80
2018-09-16T03:41:10.273Z,12.80
2018-09-16T03:43:39.834Z,12.70
2018-09-16T03:46:09.228Z,12.70
2018-09-16T03:48:38.627Z,12.70
2018-09-16T03:51:08.075Z,12.70
2018-09-16T03:53:37.374Z,12.70
2018-09-16T03:56:06.556Z,12.60
2018-09-16T03:58:35.703Z,12.60
2018-09-16T04:01:05.652Z,12.50
2018-09-16T04:03:34.891Z,12.40
2018-09-16T04:06:04.474Z,12.50
2018-09-16T04:08:34.242Z,12.50
2018-09-16T04:11:03.588Z,12.30
2018-09-16T04:13:33.960Z,12.30
2018-09-16T04:16:03.472Z,12.40
2018-09-16T04:18:33.920Z,12.40
2018-09-16T04:21:03.237Z,12.40
2018-09-16T04:23:48.174Z,12.40
2018-09-16T04:26:18.328Z,12.30
2018-09-16T04:28:48.292Z,12.30
2018-09-16T04:31:17.642Z,12.20
2018-09-16T04:33:47.090Z,12.30
2018-09-16T04:36:18.538Z,12.30
2018-09-16T04:38:48.459Z,12.40
2018-09-16T04:41:18.099Z,12.40
2018-09-16T04:43:47.620Z,12.30
2018-09-16T04:46:16.919Z,12.30
2018-09-16T04:48:47.073Z,13.40
2018-09-16T04:51:16.303Z,12.30
2018-09-16T04:53:47.220Z,12.30
2018-09-16T04:56:16.444Z,13.30
2018-09-16T04:58:46.856Z,12.20
2018-09-16T05:01:16.975Z,12.20
2018-09-16T05:03:46.244Z,12.20
2018-09-16T05:06:15.641Z,12.20
2018-09-16T05:08:47.406Z,12.20
2018-09-16T05:11:18.281Z,12.20
2018-09-16T05:13:56.356Z,12.20
2018-09-16T05:16:26.258Z,12.20
2018-09-16T05:18:56.950Z,12.20
2018-09-16T05:21:27.175Z,12.20
2018-09-16T05:23:56.455Z,12.20
2018-09-16T05:26:26.601Z,12.20
2018-09-16T05:28:56.828Z,12.20
2018-09-16T05:31:26.381Z,12.20
2018-09-16T05:33:56.001Z,12.30
2018-09-16T05:36:25.392Z,12.30
2018-09-16T05:38:55.740Z,12.20
2018-09-16T05:41:25.892Z,12.30
2018-09-16T05:43:56.368Z,12.30
2018-09-16T05:46:26.419Z,12.30
2018-09-16T05:48:55.668Z,13.40
2018-09-16T05:51:27.578Z,12.40
2018-09-16T05:53:57.866Z,12.50
2018-09-16T05:56:28.068Z,12.50
2018-09-16T05:58:58.368Z,12.50
2018-09-16T06:01:27.516Z,13.40
2018-09-16T06:03:57.489Z,12.60
2018-09-16T06:06:27.126Z,11.80
2018-09-16T06:08:56.953Z,11.60
2018-09-16T06:11:26.121Z,12.50
2018-09-16T06:13:58.412Z,12.60
2018-09-16T06:16:29.196Z,12.70
2018-09-16T06:18:58.796Z,12.60
2018-09-16T06:21:28.993Z,12.80
2018-09-16T06:23:58.499Z,12.90
2018-09-16T06:26:27.811Z,12.80
2018-09-16T06:29:00.201Z,13.00
2018-09-16T06:31:33.614Z,13.10
2018-09-16T06:34:03.846Z,13.10
2018-09-16T06:36:35.395Z,13.10
2018-09-16T06:39:13.527Z,13.10
2018-09-16T06:41:47.447Z,13.10
2018-09-16T06:44:17.789Z,13.20
2018-09-16T06:46:47.733Z,13.40
2018-09-16T06:49:17.276Z,13.40
2018-09-16T06:51:50.648Z,13.50
2018-09-16T06:54:19.997Z,13.60
2018-09-16T06:56:50.488Z,13.80
2018-09-16T06:59:20.095Z,14.10
2018-09-16T07:01:49.240Z,13.80
2018-09-16T07:04:19.223Z,13.80
2018-09-16T07:06:49.970Z,14.00
2018-09-16T07:09:19.473Z,14.10
2018-09-16T07:11:50.517Z,14.30
2018-09-16T07:14:22.210Z,14.30
2018-09-16T07:16:53.314Z,14.20
2018-09-16T07:19:24.253Z,14.30
2018-09-16T07:21:54.916Z,14.30
2018-09-16T07:24:26.143Z,14.20
2018-09-16T07:26:56.663Z,14.30
2018-09-16T07:29:25.986Z,14.50
2018-09-16T07:31:55.858Z,14.60
2018-09-16T07:34:25.367Z,14.70
2018-09-16T07:36:54.720Z,14.80
2018-09-16T07:39:24.659Z,15.00
2018-09-16T07:41:54.444Z,15.20
2018-09-16T07:44:23.604Z,15.20
2018-09-16T07:46:53.163Z,15.20
2018-09-16T07:49:24.550Z,15.20
2018-09-16T07:51:54.596Z,15.30
2018-09-16T07:54:26.325Z,15.50
2018-09-16T07:57:58.961Z,15.70
2018-09-16T08:00:29.993Z,15.80
2018-09-16T08:02:59.470Z,15.90
2018-09-16T08:05:33.280Z,16.00
2018-09-16T08:08:04.151Z,16.10
2018-09-16T08:10:33.722Z,16.40
2018-09-16T08:13:04.889Z,16.60
2018-09-16T08:15:34.494Z,16.70
2018-09-16T08:18:05.432Z,16.70
2018-09-16T08:20:34.821Z,16.90
2018-09-16T08:23:04.241Z,17.70
2018-09-16T08:25:35.602Z,15.20
2018-09-16T08:28:05.356Z,17.00
2018-09-16T08:30:36.144Z,17.10
2018-09-16T08:33:05.728Z,17.90
2018-09-16T08:35:35.307Z,17.10
2018-09-16T08:38:05.248Z,17.30
2018-09-16T08:40:34.741Z,17.50
2018-09-16T08:43:05.382Z,17.60
2018-09-16T08:45:35.057Z,17.60
2018-09-16T08:48:04.701Z,17.70
2018-09-16T08:50:34.165Z,17.70
2018-09-16T08:53:03.433Z,17.90
2018-09-16T08:55:33.600Z,18.00
2018-09-16T08:58:03.353Z,18.00
2018-09-16T09:00:33.539Z,17.80
2018-09-16T09:03:07.015Z,16.60
2018-09-16T09:05:37.301Z,18.10
2018-09-16T09:08:07.258Z,18.20
2018-09-16T09:10:37.694Z,18.30
2018-09-16T09:13:09.212Z,18.10
2018-09-16T09:15:40.903Z,18.00
2018-09-16T09:20:52.571Z,18.60
2018-09-16T09:23:21.854Z,18.60
2018-09-16T09:25:53.847Z,18.90
2018-09-16T09:28:23.071Z,18.70
2018-09-16T09:30:53.324Z,18.80
2018-09-16T09:33:25.547Z,18.80
2018-09-16T09:35:54.792Z,18.70
2018-09-16T09:38:24.016Z,18.80
2018-09-16T09:40:54.659Z,19.00
2018-09-16T09:43:25.277Z,19.00
2018-09-16T09:45:54.689Z,20.00
2018-09-16T09:48:24.363Z,19.20
2018-09-16T09:50:54.464Z,19.30
2018-09-16T09:53:26.821Z,19.40
2018-09-16T09:55:56.623Z,19.60
2018-09-16T09:58:26.517Z,19.60
2018-09-16T10:00:57.821Z,19.90
2018-09-16T10:03:28.994Z,19.90
2018-09-16T10:05:58.817Z,20.20
2018-09-16T10:08:28.403Z,20.40
2018-09-16T10:10:58.064Z,21.00
2018-09-16T10:13:29.114Z,20.70
2018-09-16T10:16:09.632Z,20.90
2018-09-16T10:18:40.909Z,21.10
2018-09-16T10:21:10.434Z,20.70
2018-09-16T10:23:42.630Z,21.10
2018-09-16T10:26:15.877Z,20.80
2018-09-16T10:28:55.730Z,20.60
2018-09-16T10:31:26.065Z,20.80
2018-09-16T10:33:57.093Z,21.20
2018-09-16T10:36:29.653Z,22.10
2018-09-16T10:39:00.537Z,21.40
2018-09-16T10:41:31.312Z,21.60
2018-09-16T10:44:01.006Z,21.50
2018-09-16T10:46:32.670Z,21.60
2018-09-16T10:49:04.332Z,21.10
2018-09-16T10:51:34.534Z,21.70
2018-09-16T10:54:04.996Z,21.60
2018-09-16T10:56:36.068Z,20.50
2018-09-16T10:59:07.162Z,21.40
2018-09-16T11:01:36.691Z,21.60
2018-09-16T11:04:09.168Z,21.60
2018-09-16T11:06:40.347Z,21.70
2018-09-16T11:09:10.479Z,21.90
2018-09-16T11:11:43.166Z,21.90
2018-09-16T11:14:15.373Z,22.00
2018-09-16T11:16:45.003Z,20.70
2018-09-16T11:19:16.075Z,22.00
2018-09-16T11:21:46.842Z,22.10
2018-09-16T11:24:17.384Z,22.40
2018-09-16T11:26:47.390Z,22.20
2018-09-16T11:29:20.251Z,23.80
2018-09-16T11:31:52.321Z,22.60
2018-09-16T11:34:22.915Z,22.60
2018-09-16T11:36:53.289Z,22.50
2018-09-16T11:39:23.230Z,21.70
2018-09-16T11:41:54.103Z,22.90
2018-09-16T11:44:26.192Z,22.80
2018-09-16T11:46:56.183Z,22.90
2018-09-16T11:49:28.410Z,22.90
2018-09-16T11:52:01.093Z,23.00
2018-09-16T11:54:31.712Z,23.00
2018-09-16T11:57:01.156Z,23.30
2018-09-16T11:59:31.215Z,23.00
2018-09-16T12:02:02.281Z,23.20
2018-09-16T12:04:35.739Z,23.40
2018-09-16T12:07:06.477Z,23.60
2018-09-16T12:09:38.916Z,23.40
2018-09-16T12:12:11.455Z,23.50
2018-09-16T12:14:41.935Z,23.70
2018-09-16T12:17:13.320Z,23.80
2018-09-16T12:19:45.814Z,23.90
2018-09-16T12:22:19.029Z,24.00
2018-09-16T12:24:53.208Z,23.90
2018-09-16T12:27:32.093Z,24.00
2018-09-16T12:30:02.043Z,24.10
2018-09-16T12:32:35.490Z,24.00
2018-09-16T12:35:09.208Z,24.10
2018-09-16T12:37:44.258Z,25.00
2018-09-16T12:40:15.328Z,24.20
2018-09-16T12:42:45.957Z,24.30
2018-09-16T12:45:18.226Z,23.30
2018-09-16T12:53:14.090Z,24.40
2018-09-16T12:55:50.251Z,24.30
2018-09-16T12:58:24.803Z,24.20
2018-09-16T13:00:57.017Z,24.50
2018-09-16T13:03:30.266Z,24.70
2018-09-16T13:06:08.029Z,24.50
2018-09-16T13:11:22.944Z,24.60
2018-09-16T13:13:53.523Z,24.60
2018-09-16T13:16:26.355Z,24.70
2018-09-16T13:18:57.438Z,24.80
2018-09-16T13:21:28.379Z,25.80
2018-09-16T13:24:01.783Z,24.40
2018-09-16T13:26:35.549Z,24.30
2018-09-16T13:29:06.541Z,23.90
2018-09-16T13:31:38.909Z,24.00
2018-09-16T13:34:10.280Z,24.10
2018-09-16T13:36:42.012Z,24.30
2018-09-16T13:39:14.225Z,24.50
2018-09-16T13:41:47.870Z,24.60
2018-09-16T13:44:17.427Z,24.70
2018-09-16T13:46:47.803Z,24.50
2018-09-16T13:49:20.432Z,25.40
2018-09-16T13:51:50.004Z,24.70
2018-09-16T13:54:20.384Z,24.80
2018-09-16T13:56:49.724Z,24.80
2018-09-16T13:59:25.959Z,24.60
2018-09-16T14:01:56.714Z,24.70
2018-09-16T14:04:26.226Z,24.80
2018-09-16T14:06:55.553Z,24.50
2018-09-16T14:09:26.388Z,24.50
2018-09-16T14:11:57.108Z,24.60
2018-09-16T14:14:27.242Z,24.60
2018-09-16T14:16:56.887Z,24.60
2018-09-16T14:19:28.404Z,24.80
2018-09-16T14:21:59.725Z,24.80
2018-09-16T14:24:29.506Z,25.00
2018-09-16T14:26:59.703Z,24.90
2018-09-16T14:29:31.970Z,24.90
2018-09-16T14:32:01.776Z,24.70
2018-09-16T14:34:34.065Z,24.70
2018-09-16T14:37:04.271Z,24.70
2018-09-16T14:39:34.365Z,24.30
2018-09-16T14:42:05.410Z,24.80
2018-09-16T14:44:37.277Z,24.90
2018-09-16T14:47:06.462Z,25.00
2018-09-16T14:49:39.745Z,25.10
2018-09-16T14:52:09.755Z,25.20
2018-09-16T14:54:41.680Z,25.30
2018-09-16T14:57:13.067Z,25.30
2018-09-16T14:59:50.247Z,25.20
2018-09-16T15:02:22.603Z,25.10
2018-09-16T15:04:54.241Z,25.10
2018-09-16T15:07:23.556Z,25.00
2018-09-16T15:09:54.693Z,24.60
2018-09-16T15:12:25.344Z,24.30
2018-09-16T15:14:56.004Z,24.50
2018-09-16T15:17:27.098Z,24.60
2018-09-16T15:19:56.830Z,24.50
2018-09-16T15:22:27.653Z,24.40
2018-09-16T15:24:58.933Z,24.50
2018-09-16T15:27:30.124Z,24.70
2018-09-16T15:30:04.124Z,24.70
2018-09-16T15:32:34.179Z,25.10
2018-09-16T15:35:06.132Z,24.80
2018-09-16T15:37:35.322Z,24.70
2018-09-16T15:40:05.744Z,25.00
2018-09-16T15:42:35.707Z,24.50
2018-09-16T15:45:05.757Z,24.50
2018-09-16T15:47:35.824Z,23.90
2018-09-16T15:50:05.224Z,24.30
2018-09-16T15:52:35.915Z,24.20
2018-09-16T15:55:05.401Z,24.10
2018-09-16T15:57:36.582Z,24.20
2018-09-16T16:00:07.732Z,25.80
2018-09-16T16:02:39.649Z,24.60
2018-09-16T16:05:10.518Z,24.70
2018-09-16T16:07:40.947Z,24.70
2018-09-16T16:10:13.144Z,24.80
2018-09-16T16:12:47.387Z,23.50
2018-09-16T16:15:22.660Z,24.80
2018-09-16T16:17:53.673Z,24.70
2018-09-16T16:20:30.344Z,24.60
2018-09-16T16:23:01.584Z,24.50
2018-09-16T16:25:32.447Z,24.40
2018-09-16T16:28:03.305Z,24.30
2018-09-16T16:30:34.382Z,24.20
2018-09-16T16:33:04.848Z,24.10
2018-09-16T16:35:34.872Z,24.10
2018-09-16T16:38:04.934Z,23.90
2018-09-16T16:40:35.072Z,23.90
2018-09-16T16:43:04.402Z,23.90
2018-09-16T16:45:36.521Z,23.80
2018-09-16T16:48:07.232Z,23.70
2018-09-16T16:50:38.684Z,23.70
2018-09-16T16:53:13.802Z,24.70
2018-09-16T16:55:44.147Z,23.60
2018-09-16T16:58:14.198Z,22.40
2018-09-16T17:00:44.507Z,23.40
2018-09-16T17:03:15.442Z,23.40
2018-09-16T17:05:46.342Z,23.30
2018-09-16T17:09:02.241Z,23.30
2018-09-16T17:11:35.065Z,23.20
2018-09-16T17:14:08.359Z,23.10
2018-09-16T17:16:43.393Z,23.00
2018-09-16T17:19:12.839Z,22.90
2018-09-16T17:21:42.476Z,22.80
2018-09-16T17:24:15.021Z,22.70
2018-09-16T17:26:47.932Z,22.00
2018-09-16T17:29:18.100Z,23.60
2018-09-16T17:31:48.488Z,22.40
2018-09-16T17:34:19.718Z,22.30
2018-09-16T17:36:50.301Z,22.20
2018-09-16T17:39:19.567Z,22.00
2018-09-16T17:41:49.241Z,21.90
2018-09-16T17:44:20.542Z,21.80
2018-09-16T17:46:50.571Z,21.80
2018-09-16T17:49:21.764Z,21.60
2018-09-16T17:51:52.078Z,21.40
2018-09-16T17:54:21.878Z,21.20
2018-09-16T17:56:53.476Z,21.20
2018-09-16T17:59:23.575Z,21.30
2018-09-16T18:01:54.464Z,21.30
2018-09-16T18:04:26.840Z,21.20
2018-09-16T18:06:57.553Z,21.20
2018-09-16T18:09:27.431Z,21.10
2018-09-16T18:12:01.136Z,21.10
2018-09-16T18:14:32.767Z,21.10
2018-09-16T18:17:03.397Z,20.90
2018-09-16T18:19:34.169Z,20.90
2018-09-16T18:22:05.046Z,20.90
2018-09-16T18:24:34.394Z,20.80
2018-09-16T18:27:04.025Z,20.80
2018-09-16T18:29:33.507Z,20.70
2018-09-16T18:32:03.760Z,20.70
2018-09-16T18:34:34.012Z,20.70
2018-09-16T18:37:03.395Z,20.60
2018-09-16T18:39:33.279Z,20.50
2018-09-16T18:42:03.993Z,20.50
2018-09-16T18:44:35.231Z,20.50
2018-09-16T18:50:42.998Z,20.40
2018-09-16T18:53:12.154Z,20.30
2018-09-16T18:55:41.733Z,20.30
2018-09-16T18:58:11.611Z,20.30
2018-09-16T19:00:44.624Z,20.20
2018-09-16T19:03:15.544Z,20.10
2018-09-16T19:05:45.402Z,20.20
2018-09-16T19:08:16.336Z,20.10
2018-09-16T19:10:45.904Z,20.00
2018-09-16T19:13:20.817Z,20.00
2018-09-16T19:15:50.605Z,20.00
2018-09-16T19:18:21.990Z,19.90
2018-09-16T19:20:51.967Z,19.90
2018-09-16T19:23:22.723Z,19.80
2018-09-16T19:25:52.008Z,19.90
2018-09-16T19:28:24.025Z,19.70
2018-09-16T19:30:53.410Z,19.70
2018-09-16T19:33:27.534Z,19.60
2018-09-16T19:35:57.157Z,19.60
2018-09-16T19:38:27.835Z,19.50
2018-09-16T19:40:58.224Z,19.50
2018-09-16T19:43:29.301Z,19.40
2018-09-16T19:46:01.647Z,19.30
2018-09-16T19:48:32.488Z,19.30
2018-09-16T19:51:05.491Z,19.30
2018-09-16T19:53:47.445Z,19.30
2018-09-16T19:56:16.903Z,20.50
2018-09-16T19:58:49.004Z,19.20
2018-09-16T20:01:18.526Z,18.50
2018-09-16T20:03:48.957Z,18.90
2018-09-16T20:06:19.362Z,18.90
2018-09-16T20:08:50.477Z,18.80
2018-09-16T20:11:20.420Z,18.90
2018-09-16T20:13:50.556Z,18.80
2018-09-16T20:16:22.577Z,18.60
2018-09-16T20:18:52.972Z,18.60
2018-09-16T20:21:24.022Z,18.70
2018-09-16T20:23:56.459Z,18.60
2018-09-16T20:26:26.708Z,18.60
2018-09-16T20:28:56.785Z,20.40
2018-09-16T20:31:27.243Z,18.50
2018-09-16T20:33:57.182Z,18.50
2018-09-16T20:36:26.396Z,19.60
2018-09-16T20:38:58.906Z,18.30
2018-09-16T20:41:28.341Z,18.30
2018-09-16T20:43:59.620Z,18.20
2018-09-16T20:46:29.698Z,18.10
2018-09-16T20:49:00.810Z,18.00
2018-09-16T20:51:32.093Z,18.00
2018-09-16T20:54:01.470Z,17.80
2018-09-16T20:56:33.601Z,18.00
2018-09-16T20:59:04.362Z,18.00
2018-09-16T21:01:35.070Z,17.90
2018-09-16T21:04:05.340Z,17.90
2018-09-16T21:06:35.249Z,17.90
2018-09-16T21:09:08.253Z,17.90
2018-09-16T21:11:38.380Z,17.90
2018-09-16T21:14:07.946Z,17.90
2018-09-16T21:16:37.266Z,17.80
2018-09-16T21:19:06.590Z,17.80
2018-09-16T21:21:37.727Z,17.70
2018-09-16T21:24:08.238Z,16.00
2018-09-16T21:26:38.745Z,17.70
2018-09-16T21:29:07.901Z,17.60
2018-09-16T21:31:37.400Z,17.70
2018-09-16T21:34:07.918Z,17.60
2018-09-16T21:36:37.582Z,17.50
2018-09-16T21:39:11.519Z,17.50
2018-09-16T21:41:41.702Z,17.50
2018-09-16T21:44:11.103Z,17.50
2018-09-16T21:46:41.224Z,17.50
2018-09-16T21:49:11.579Z,17.40
2018-09-16T21:51:42.848Z,17.20
2018-09-16T21:54:14.210Z,17.20
2018-09-16T21:56:44.807Z,17.30
2018-09-16T21:59:15.489Z,17.40
2018-09-16T22:02:17.132Z,17.40
2018-09-16T22:04:47.675Z,17.50
2018-09-16T22:07:17.252Z,17.40
2018-09-16T22:10:02.344Z,17.30
2018-09-16T22:12:34.709Z,17.20
2018-09-16T22:15:04.231Z,17.20
2018-09-16T22:17:34.325Z,17.20
2018-09-16T22:20:05.184Z,17.10
2018-09-16T22:22:35.786Z,17.00
2018-09-16T22:25:06.611Z,16.90
2018-09-16T22:27:37.137Z,16.90
2018-09-16T22:30:08.424Z,16.80
2018-09-16T22:32:39.409Z,16.70
2018-09-16T22:35:08.832Z,16.60
2018-09-16T22:37:39.965Z,16.60
2018-09-16T22:40:10.241Z,17.30
2018-09-16T22:42:39.772Z,16.40
2018-09-16T22:45:09.721Z,16.40
2018-09-16T22:47:38.860Z,16.40
2018-09-16T22:50:08.258Z,16.20
2018-09-16T22:52:38.281Z,16.00
2018-09-16T22:55:08.925Z,16.00
2018-09-16T22:57:38.364Z,15.90
2018-09-16T23:00:11.562Z,15.80
2018-09-16T23:02:41.127Z,15.80
2018-09-16T23:05:11.467Z,15.70
2018-09-16T23:07:41.063Z,15.70
2018-09-16T23:10:11.252Z,15.70
2018-09-16T23:12:40.767Z,15.80
2018-09-16T23:15:09.901Z,15.80
2018-09-16T23:17:39.374Z,15.90
2018-09-16T23:20:08.828Z,15.90
2018-09-16T23:22:38.080Z,15.90
2018-09-16T23:25:08.674Z,15.90
2018-09-16T23:27:38.488Z,15.90
2018-09-16T23:30:08.092Z,15.90
2018-09-16T23:32:37.356Z,15.80
2018-09-16T23:35:06.839Z,15.80
2018-09-16T23:37:36.388Z,15.80
2018-09-16T23:40:05.611Z,15.80
2018-09-16T23:42:35.062Z,15.70
2018-09-16T23:45:04.393Z,15.60
2018-09-16T23:47:34.220Z,15.50
2018-09-16T23:50:03.354Z,15.50
2018-09-16T23:52:34.254Z,15.60
2018-09-16T23:55:03.348Z,15.60
2018-09-16T23:57:32.677Z,15.50
